Terminal Aerodrome Forecast
Issued by NWS

Home | Current Version | Previous Version | Graphics & Text | Print | Product List | Glossary On
Versions: 1 2 3 4 5 6 7 8 9 10 11 12 13 14 15 16 17 18
000
FTUS43 KTOP 212300
TAFMHK
TAF
KMHK 212323Z 2200/2224 12003KT 1/4SM -DZ FG OVC002
      TEMPO 2211/2215 1SM -DZ BR OVC005
     FM221600 20010KT 5SM BR SCT015 BKN025=

USA.gov is the U.S. government's official web portal to all federal, state and local government web resources and services.